sensor_id;sensor_type;location;lat;lon;timestamp;P1;durP1;ratioP1;P2;durP2;ratioP2
5549;SDS011;2798;42.716;23.256;2023-03-14T00:01:56;14.10;;;10.13;;
5549;SDS011;2798;42.716;23.256;2023-03-14T00:04:22;16.50;;;9.43;;
5549;SDS011;2798;42.716;23.256;2023-03-14T00:06:47;15.43;;;9.33;;
5549;SDS011;2798;42.716;23.256;2023-03-14T00:09:13;14.00;;;8.30;;
5549;SDS011;2798;42.716;23.256;2023-03-14T00:11:38;18.80;;;10.03;;
5549;SDS011;2798;42.716;23.256;2023-03-14T00:14:03;13.87;;;9.03;;
5549;SDS011;2798;42.716;23.256;2023-03-14T00:16:29;12.53;;;8.10;;
5549;SDS011;2798;42.716;23.256;2023-03-14T00:18:54;13.10;;;8.13;;
5549;SDS011;2798;42.716;23.256;2023-03-14T00:21:19;11.53;;;8.20;;
5549;SDS011;2798;42.716;23.256;2023-03-14T00:23:45;13.53;;;8.47;;
5549;SDS011;2798;42.716;23.256;2023-03-14T00:26:11;11.30;;;7.83;;
5549;SDS011;2798;42.716;23.256;2023-03-14T00:28:36;14.50;;;8.50;;
5549;SDS011;2798;42.716;23.256;2023-03-14T00:31:02;14.30;;;8.57;;
5549;SDS011;2798;42.716;23.256;2023-03-14T00:33:28;12.80;;;8.63;;
5549;SDS011;2798;42.716;23.256;2023-03-14T00:35:54;13.87;;;8.70;;
5549;SDS011;2798;42.716;23.256;2023-03-14T00:38:19;13.50;;;8.77;;
5549;SDS011;2798;42.716;23.256;2023-03-14T00:40:45;12.60;;;8.20;;
5549;SDS011;2798;42.716;23.256;2023-03-14T00:43:10;16.13;;;9.83;;
5549;SDS011;2798;42.716;23.256;2023-03-14T00:45:35;13.20;;;8.10;;
5549;SDS011;2798;42.716;23.256;2023-03-14T00:48:01;17.33;;;9.97;;
5549;SDS011;2798;42.716;23.256;2023-03-14T00:50:26;19.00;;;10.80;;
5549;SDS011;2798;42.716;23.256;2023-03-14T00:52:51;17.30;;;10.60;;
5549;SDS011;2798;42.716;23.256;2023-03-14T00:55:16;14.90;;;9.13;;
5549;SDS011;2798;42.716;23.256;2023-03-14T00:57:42;17.47;;;10.00;;
5549;SDS011;2798;42.716;23.256;2023-03-14T01:00:07;13.97;;;8.80;;
5549;SDS011;2798;42.716;23.256;2023-03-14T01:02:35;17.90;;;9.57;;
5549;SDS011;2798;42.716;23.256;2023-03-14T01:05:01;14.67;;;9.27;;
5549;SDS011;2798;42.716;23.256;2023-03-14T01:07:26;15.20;;;9.53;;
5549;SDS011;2798;42.716;23.256;2023-03-14T01:09:52;11.97;;;8.57;;
5549;SDS011;2798;42.716;23.256;2023-03-14T01:12:17;15.23;;;9.43;;
5549;SDS011;2798;42.716;23.256;2023-03-14T01:14:42;17.57;;;8.70;;
5549;SDS011;2798;42.716;23.256;2023-03-14T01:17:08;13.73;;;8.00;;
5549;SDS011;2798;42.716;23.256;2023-03-14T01:19:33;14.70;;;9.43;;
5549;SDS011;2798;42.716;23.256;2023-03-14T01:24:42;17.50;;;9.47;;
5549;SDS011;2798;42.716;23.256;2023-03-14T01:27:07;23.63;;;9.40;;
5549;SDS011;2798;42.716;23.256;2023-03-14T01:29:33;13.60;;;8.70;;
5549;SDS011;2798;42.716;23.256;2023-03-14T01:31:58;12.90;;;8.53;;
5549;SDS011;2798;42.716;23.256;2023-03-14T01:34:23;13.77;;;8.83;;
5549;SDS011;2798;42.716;23.256;2023-03-14T01:36:49;12.77;;;8.93;;
5549;SDS011;2798;42.716;23.256;2023-03-14T01:39:14;15.40;;;9.30;;
5549;SDS011;2798;42.716;23.256;2023-03-14T01:41:39;16.20;;;8.40;;
5549;SDS011;2798;42.716;23.256;2023-03-14T01:44:05;13.13;;;8.40;;
5549;SDS011;2798;42.716;23.256;2023-03-14T01:46:35;14.07;;;9.07;;
5549;SDS011;2798;42.716;23.256;2023-03-14T01:51:35;17.60;;;9.17;;
5549;SDS011;2798;42.716;23.256;2023-03-14T01:54:47;18.00;;;9.60;;
5549;SDS011;2798;42.716;23.256;2023-03-14T01:56:49;15.57;;;8.93;;
5549;SDS011;2798;42.716;23.256;2023-03-14T01:59:15;11.07;;;8.40;;
5549;SDS011;2798;42.716;23.256;2023-03-14T02:01:41;13.53;;;8.03;;
5549;SDS011;2798;42.716;23.256;2023-03-14T02:04:07;15.20;;;8.43;;
5549;SDS011;2798;42.716;23.256;2023-03-14T02:06:35;12.70;;;8.73;;
5549;SDS011;2798;42.716;23.256;2023-03-14T02:09:02;15.10;;;9.83;;
5549;SDS011;2798;42.716;23.256;2023-03-14T02:11:29;14.50;;;8.93;;
5549;SDS011;2798;42.716;23.256;2023-03-14T02:13:55;22.73;;;10.07;;
5549;SDS011;2798;42.716;23.256;2023-03-14T02:16:21;11.50;;;8.00;;
5549;SDS011;2798;42.716;23.256;2023-03-14T02:18:47;13.77;;;9.40;;
5549;SDS011;2798;42.716;23.256;2023-03-14T02:23:47;11.10;;;7.70;;
5549;SDS011;2798;42.716;23.256;2023-03-14T02:26:32;12.70;;;7.90;;
5549;SDS011;2798;42.716;23.256;2023-03-14T02:28:59;15.27;;;8.57;;
5549;SDS011;2798;42.716;23.256;2023-03-14T02:31:24;14.00;;;7.70;;
5549;SDS011;2798;42.716;23.256;2023-03-14T02:33:50;22.47;;;8.40;;
5549;SDS011;2798;42.716;23.256;2023-03-14T02:36:16;11.27;;;7.83;;
5549;SDS011;2798;42.716;23.256;2023-03-14T02:38:45;13.70;;;9.00;;
5549;SDS011;2798;42.716;23.256;2023-03-14T02:41:11;12.90;;;8.50;;
5549;SDS011;2798;42.716;23.256;2023-03-14T02:43:37;16.13;;;9.73;;
5549;SDS011;2798;42.716;23.256;2023-03-14T02:46:03;17.83;;;8.47;;
5549;SDS011;2798;42.716;23.256;2023-03-14T02:48:36;16.30;;;8.50;;
5549;SDS011;2798;42.716;23.256;2023-03-14T02:51:03;14.40;;;8.53;;
5549;SDS011;2798;42.716;23.256;2023-03-14T02:53:30;16.57;;;10.13;;
5549;SDS011;2798;42.716;23.256;2023-03-14T02:55:56;15.07;;;8.70;;
5549;SDS011;2798;42.716;23.256;2023-03-14T02:58:21;14.10;;;9.63;;
5549;SDS011;2798;42.716;23.256;2023-03-14T03:00:47;12.30;;;8.17;;
5549;SDS011;2798;42.716;23.256;2023-03-14T03:03:12;14.83;;;9.20;;
5549;SDS011;2798;42.716;23.256;2023-03-14T03:05:38;12.70;;;8.37;;
5549;SDS011;2798;42.716;23.256;2023-03-14T03:08:03;16.03;;;9.53;;
5549;SDS011;2798;42.716;23.256;2023-03-14T03:10:29;12.57;;;8.80;;
5549;SDS011;2798;42.716;23.256;2023-03-14T03:12:54;14.93;;;9.00;;
5549;SDS011;2798;42.716;23.256;2023-03-14T03:15:20;13.70;;;9.40;;
5549;SDS011;2798;42.716;23.256;2023-03-14T03:17:45;14.83;;;8.90;;
5549;SDS011;2798;42.716;23.256;2023-03-14T03:20:10;14.17;;;8.80;;
5549;SDS011;2798;42.716;23.256;2023-03-14T03:22:37;12.03;;;8.53;;
5549;SDS011;2798;42.716;23.256;2023-03-14T03:25:03;14.13;;;8.67;;
5549;SDS011;2798;42.716;23.256;2023-03-14T03:27:32;13.10;;;8.63;;
5549;SDS011;2798;42.716;23.256;2023-03-14T03:29:57;13.10;;;7.73;;
5549;SDS011;2798;42.716;23.256;2023-03-14T03:32:23;13.03;;;8.57;;
5549;SDS011;2798;42.716;23.256;2023-03-14T03:34:48;17.13;;;7.97;;
5549;SDS011;2798;42.716;23.256;2023-03-14T03:37:13;15.17;;;8.30;;
5549;SDS011;2798;42.716;23.256;2023-03-14T03:39:39;12.53;;;8.20;;
5549;SDS011;2798;42.716;23.256;2023-03-14T03:42:04;11.30;;;8.17;;
5549;SDS011;2798;42.716;23.256;2023-03-14T03:44:29;11.67;;;7.40;;
5549;SDS011;2798;42.716;23.256;2023-03-14T03:46:54;14.40;;;8.43;;
5549;SDS011;2798;42.716;23.256;2023-03-14T03:49:20;12.67;;;8.10;;
5549;SDS011;2798;42.716;23.256;2023-03-14T03:51:45;13.00;;;8.80;;
5549;SDS011;2798;42.716;23.256;2023-03-14T03:54:10;17.23;;;8.10;;
5549;SDS011;2798;42.716;23.256;2023-03-14T03:56:35;16.60;;;8.50;;
5549;SDS011;2798;42.716;23.256;2023-03-14T03:59:01;11.57;;;8.17;;
5549;SDS011;2798;42.716;23.256;2023-03-14T04:01:26;18.60;;;8.57;;
5549;SDS011;2798;42.716;23.256;2023-03-14T04:03:51;19.90;;;9.00;;
5549;SDS011;2798;42.716;23.256;2023-03-14T04:06:16;11.47;;;8.03;;
5549;SDS011;2798;42.716;23.256;2023-03-14T04:08:42;19.70;;;8.87;;
5549;SDS011;2798;42.716;23.256;2023-03-14T04:11:08;14.73;;;8.13;;
5549;SDS011;2798;42.716;23.256;2023-03-14T04:13:33;14.37;;;8.63;;
5549;SDS011;2798;42.716;23.256;2023-03-14T04:15:58;15.47;;;9.00;;
5549;SDS011;2798;42.716;23.256;2023-03-14T04:18:24;15.13;;;7.90;;
5549;SDS011;2798;42.716;23.256;2023-03-14T04:20:53;13.70;;;8.50;;
5549;SDS011;2798;42.716;23.256;2023-03-14T04:23:19;16.40;;;9.60;;
5549;SDS011;2798;42.716;23.256;2023-03-14T04:25:44;19.80;;;8.67;;
5549;SDS011;2798;42.716;23.256;2023-03-14T04:28:09;14.50;;;8.60;;
5549;SDS011;2798;42.716;23.256;2023-03-14T04:30:34;13.30;;;9.50;;
5549;SDS011;2798;42.716;23.256;2023-03-14T04:33:00;14.40;;;9.10;;
5549;SDS011;2798;42.716;23.256;2023-03-14T04:35:25;13.50;;;8.50;;
5549;SDS011;2798;42.716;23.256;2023-03-14T04:37:50;12.57;;;8.03;;
5549;SDS011;2798;42.716;23.256;2023-03-14T04:40:16;12.63;;;8.70;;
5549;SDS011;2798;42.716;23.256;2023-03-14T04:42:42;13.23;;;7.90;;
5549;SDS011;2798;42.716;23.256;2023-03-14T04:45:07;15.13;;;8.70;;
5549;SDS011;2798;42.716;23.256;2023-03-14T04:47:32;17.83;;;8.80;;
5549;SDS011;2798;42.716;23.256;2023-03-14T04:49:58;17.60;;;9.40;;
5549;SDS011;2798;42.716;23.256;2023-03-14T04:52:23;17.60;;;8.23;;
5549;SDS011;2798;42.716;23.256;2023-03-14T04:54:48;18.37;;;8.17;;
5549;SDS011;2798;42.716;23.256;2023-03-14T04:57:13;21.23;;;8.50;;
5549;SDS011;2798;42.716;23.256;2023-03-14T04:59:39;14.77;;;8.87;;
5549;SDS011;2798;42.716;23.256;2023-03-14T05:02:04;16.30;;;8.60;;
5549;SDS011;2798;42.716;23.256;2023-03-14T05:04:29;14.63;;;7.90;;
5549;SDS011;2798;42.716;23.256;2023-03-14T05:06:57;15.93;;;6.83;;
5549;SDS011;2798;42.716;23.256;2023-03-14T05:09:23;19.90;;;8.40;;
5549;SDS011;2798;42.716;23.256;2023-03-14T05:11:48;18.53;;;7.70;;
5549;SDS011;2798;42.716;23.256;2023-03-14T05:14:13;12.83;;;8.23;;
5549;SDS011;2798;42.716;23.256;2023-03-14T05:16:38;11.90;;;7.50;;
5549;SDS011;2798;42.716;23.256;2023-03-14T05:19:04;14.37;;;8.20;;
5549;SDS011;2798;42.716;23.256;2023-03-14T05:21:29;14.93;;;9.70;;
5549;SDS011;2798;42.716;23.256;2023-03-14T05:23:54;16.87;;;8.87;;
5549;SDS011;2798;42.716;23.256;2023-03-14T05:26:19;16.97;;;9.07;;
5549;SDS011;2798;42.716;23.256;2023-03-14T05:28:45;20.00;;;8.00;;
5549;SDS011;2798;42.716;23.256;2023-03-14T05:31:10;15.27;;;8.20;;
5549;SDS011;2798;42.716;23.256;2023-03-14T05:33:35;9.87;;;6.93;;
5549;SDS011;2798;42.716;23.256;2023-03-14T05:36:01;12.03;;;7.90;;
5549;SDS011;2798;42.716;23.256;2023-03-14T05:38:26;14.80;;;7.87;;
5549;SDS011;2798;42.716;23.256;2023-03-14T05:40:51;14.53;;;7.40;;
5549;SDS011;2798;42.716;23.256;2023-03-14T05:43:17;13.97;;;7.27;;
5549;SDS011;2798;42.716;23.256;2023-03-14T05:45:42;15.30;;;6.70;;
5549;SDS011;2798;42.716;23.256;2023-03-14T05:48:08;13.63;;;7.47;;
5549;SDS011;2798;42.716;23.256;2023-03-14T05:50:33;12.50;;;6.80;;
5549;SDS011;2798;42.716;23.256;2023-03-14T05:52:58;17.20;;;7.20;;
5549;SDS011;2798;42.716;23.256;2023-03-14T05:55:24;16.93;;;7.67;;
5549;SDS011;2798;42.716;23.256;2023-03-14T05:57:49;15.57;;;7.67;;
5549;SDS011;2798;42.716;23.256;2023-03-14T06:00:15;15.97;;;8.83;;
5549;SDS011;2798;42.716;23.256;2023-03-14T06:02:40;16.07;;;8.90;;
5549;SDS011;2798;42.716;23.256;2023-03-14T06:05:06;25.30;;;11.07;;
5549;SDS011;2798;42.716;23.256;2023-03-14T06:07:31;37.03;;;10.10;;
5549;SDS011;2798;42.716;23.256;2023-03-14T06:09:57;27.33;;;10.50;;
5549;SDS011;2798;42.716;23.256;2023-03-14T06:12:23;33.43;;;11.43;;
5549;SDS011;2798;42.716;23.256;2023-03-14T06:14:48;26.77;;;11.10;;
5549;SDS011;2798;42.716;23.256;2023-03-14T06:17:14;21.20;;;9.97;;
5549;SDS011;2798;42.716;23.256;2023-03-14T06:19:39;35.70;;;13.10;;
5549;SDS011;2798;42.716;23.256;2023-03-14T06:22:04;43.70;;;12.70;;
5549;SDS011;2798;42.716;23.256;2023-03-14T06:24:29;39.03;;;15.07;;
5549;SDS011;2798;42.716;23.256;2023-03-14T06:26:55;40.60;;;15.87;;
5549;SDS011;2798;42.716;23.256;2023-03-14T06:29:20;34.87;;;14.50;;
5549;SDS011;2798;42.716;23.256;2023-03-14T06:31:45;36.33;;;14.43;;
5549;SDS011;2798;42.716;23.256;2023-03-14T06:34:10;33.70;;;13.73;;
5549;SDS011;2798;42.716;23.256;2023-03-14T06:36:36;40.17;;;13.10;;
5549;SDS011;2798;42.716;23.256;2023-03-14T06:39:01;30.40;;;12.70;;
5549;SDS011;2798;42.716;23.256;2023-03-14T06:41:26;46.40;;;12.90;;
5549;SDS011;2798;42.716;23.256;2023-03-14T06:43:52;34.27;;;11.90;;
5549;SDS011;2798;42.716;23.256;2023-03-14T06:46:17;45.93;;;14.33;;
5549;SDS011;2798;42.716;23.256;2023-03-14T06:48:42;27.00;;;12.43;;
5549;SDS011;2798;42.716;23.256;2023-03-14T06:51:08;28.67;;;11.93;;
5549;SDS011;2798;42.716;23.256;2023-03-14T06:53:33;27.47;;;12.50;;
5549;SDS011;2798;42.716;23.256;2023-03-14T06:55:58;34.70;;;12.67;;
5549;SDS011;2798;42.716;23.256;2023-03-14T06:58:24;29.50;;;13.17;;
5549;SDS011;2798;42.716;23.256;2023-03-14T07:00:49;28.77;;;12.80;;
5549;SDS011;2798;42.716;23.256;2023-03-14T07:03:14;42.40;;;13.33;;
5549;SDS011;2798;42.716;23.256;2023-03-14T07:05:40;31.63;;;13.20;;
5549;SDS011;2798;42.716;23.256;2023-03-14T07:08:06;28.93;;;13.77;;
5549;SDS011;2798;42.716;23.256;2023-03-14T07:10:32;39.53;;;15.43;;
5549;SDS011;2798;42.716;23.256;2023-03-14T07:12:57;29.77;;;14.47;;
5549;SDS011;2798;42.716;23.256;2023-03-14T07:15:22;39.40;;;14.40;;
5549;SDS011;2798;42.716;23.256;2023-03-14T07:17:48;25.60;;;13.60;;
5549;SDS011;2798;42.716;23.256;2023-03-14T07:20:13;32.10;;;13.97;;
5549;SDS011;2798;42.716;23.256;2023-03-14T07:22:38;32.13;;;13.63;;
5549;SDS011;2798;42.716;23.256;2023-03-14T07:25:04;40.10;;;13.10;;
5549;SDS011;2798;42.716;23.256;2023-03-14T07:27:29;33.47;;;14.10;;
5549;SDS011;2798;42.716;23.256;2023-03-14T07:29:55;33.97;;;12.80;;
5549;SDS011;2798;42.716;23.256;2023-03-14T07:32:20;36.33;;;14.23;;
5549;SDS011;2798;42.716;23.256;2023-03-14T07:34:45;33.40;;;13.40;;
5549;SDS011;2798;42.716;23.256;2023-03-14T07:37:10;32.57;;;14.27;;
5549;SDS011;2798;42.716;23.256;2023-03-14T07:39:36;30.77;;;14.43;;
5549;SDS011;2798;42.716;23.256;2023-03-14T07:42:01;34.33;;;13.90;;
5549;SDS011;2798;42.716;23.256;2023-03-14T07:44:26;35.33;;;14.57;;
5549;SDS011;2798;42.716;23.256;2023-03-14T07:46:51;34.60;;;13.47;;
5549;SDS011;2798;42.716;23.256;2023-03-14T07:49:17;37.10;;;14.10;;
5549;SDS011;2798;42.716;23.256;2023-03-14T07:51:42;31.50;;;12.83;;
5549;SDS011;2798;42.716;23.256;2023-03-14T07:54:09;36.60;;;15.03;;
5549;SDS011;2798;42.716;23.256;2023-03-14T07:56:34;32.73;;;14.40;;
5549;SDS011;2798;42.716;23.256;2023-03-14T07:58:59;29.50;;;13.83;;
5549;SDS011;2798;42.716;23.256;2023-03-14T08:01:24;37.07;;;14.53;;
5549;SDS011;2798;42.716;23.256;2023-03-14T08:03:50;43.05;;;14.95;;
5549;SDS011;2798;42.716;23.256;2023-03-14T08:06:15;56.67;;;15.80;;
5549;SDS011;2798;42.716;23.256;2023-03-14T08:08:40;37.67;;;15.60;;
5549;SDS011;2798;42.716;23.256;2023-03-14T08:11:06;40.13;;;15.47;;
5549;SDS011;2798;42.716;23.256;2023-03-14T08:13:33;45.90;;;15.77;;
5549;SDS011;2798;42.716;23.256;2023-03-14T08:15:59;31.33;;;14.90;;
5549;SDS011;2798;42.716;23.256;2023-03-14T08:18:24;45.93;;;16.60;;
5549;SDS011;2798;42.716;23.256;2023-03-14T08:20:49;44.43;;;16.57;;
5549;SDS011;2798;42.716;23.256;2023-03-14T08:23:14;43.60;;;16.30;;
5549;SDS011;2798;42.716;23.256;2023-03-14T08:25:40;43.67;;;15.93;;
5549;SDS011;2798;42.716;23.256;2023-03-14T08:28:05;31.13;;;14.17;;
5549;SDS011;2798;42.716;23.256;2023-03-14T08:30:30;36.90;;;15.37;;
5549;SDS011;2798;42.716;23.256;2023-03-14T08:32:56;44.37;;;14.77;;
5549;SDS011;2798;42.716;23.256;2023-03-14T08:35:22;35.57;;;15.70;;
5549;SDS011;2798;42.716;23.256;2023-03-14T08:37:47;37.00;;;13.70;;
5549;SDS011;2798;42.716;23.256;2023-03-14T08:40:13;27.43;;;13.60;;
5549;SDS011;2798;42.716;23.256;2023-03-14T08:42:39;31.50;;;15.00;;
5549;SDS011;2798;42.716;23.256;2023-03-14T08:45:04;33.87;;;15.07;;
5549;SDS011;2798;42.716;23.256;2023-03-14T08:47:30;34.97;;;13.60;;
5549;SDS011;2798;42.716;23.256;2023-03-14T08:49:55;24.60;;;13.67;;
5549;SDS011;2798;42.716;23.256;2023-03-14T08:52:20;29.23;;;14.27;;
5549;SDS011;2798;42.716;23.256;2023-03-14T08:54:46;28.87;;;13.00;;
5549;SDS011;2798;42.716;23.256;2023-03-14T08:57:11;26.87;;;12.50;;
5549;SDS011;2798;42.716;23.256;2023-03-14T08:59:36;34.10;;;13.30;;
5549;SDS011;2798;42.716;23.256;2023-03-14T09:02:02;31.80;;;12.83;;
5549;SDS011;2798;42.716;23.256;2023-03-14T09:04:31;32.33;;;12.23;;
5549;SDS011;2798;42.716;23.256;2023-03-14T09:06:56;27.13;;;11.30;;
5549;SDS011;2798;42.716;23.256;2023-03-14T09:09:23;25.70;;;11.33;;
5549;SDS011;2798;42.716;23.256;2023-03-14T09:11:48;22.13;;;10.90;;
5549;SDS011;2798;42.716;23.256;2023-03-14T09:14:13;22.07;;;10.60;;
5549;SDS011;2798;42.716;23.256;2023-03-14T09:16:39;18.00;;;8.70;;
5549;SDS011;2798;42.716;23.256;2023-03-14T09:19:04;18.70;;;9.07;;
5549;SDS011;2798;42.716;23.256;2023-03-14T09:21:30;15.40;;;8.93;;
5549;SDS011;2798;42.716;23.256;2023-03-14T09:23:55;14.93;;;8.30;;
5549;SDS011;2798;42.716;23.256;2023-03-14T09:26:21;13.33;;;7.90;;
5549;SDS011;2798;42.716;23.256;2023-03-14T09:28:46;19.93;;;7.93;;
5549;SDS011;2798;42.716;23.256;2023-03-14T09:31:11;12.30;;;6.87;;
5549;SDS011;2798;42.716;23.256;2023-03-14T09:33:37;14.00;;;7.00;;
5549;SDS011;2798;42.716;23.256;2023-03-14T09:36:02;15.37;;;6.73;;
5549;SDS011;2798;42.716;23.256;2023-03-14T09:38:28;14.93;;;7.20;;
5549;SDS011;2798;42.716;23.256;2023-03-14T09:40:53;13.83;;;7.70;;
5549;SDS011;2798;42.716;23.256;2023-03-14T09:43:19;22.40;;;8.70;;
5549;SDS011;2798;42.716;23.256;2023-03-14T09:45:46;18.03;;;8.13;;
5549;SDS011;2798;42.716;23.256;2023-03-14T09:48:17;14.57;;;7.93;;
5549;SDS011;2798;42.716;23.256;2023-03-14T09:50:53;23.70;;;10.83;;
5549;SDS011;2798;42.716;23.256;2023-03-14T09:53:30;13.87;;;7.87;;
5549;SDS011;2798;42.716;23.256;2023-03-14T09:55:59;10.37;;;7.50;;
5549;SDS011;2798;42.716;23.256;2023-03-14T09:58:25;13.23;;;9.10;;
5549;SDS011;2798;42.716;23.256;2023-03-14T10:00:51;14.40;;;8.07;;
5549;SDS011;2798;42.716;23.256;2023-03-14T10:03:22;8.57;;;6.60;;
5549;SDS011;2798;42.716;23.256;2023-03-14T10:05:47;11.73;;;5.87;;
5549;SDS011;2798;42.716;23.256;2023-03-14T10:08:13;7.67;;;6.00;;
5549;SDS011;2798;42.716;23.256;2023-03-14T10:10:38;9.00;;;6.30;;
5549;SDS011;2798;42.716;23.256;2023-03-14T10:13:18;7.60;;;4.10;;
5549;SDS011;2798;42.716;23.256;2023-03-14T10:15:48;6.17;;;4.83;;
5549;SDS011;2798;42.716;23.256;2023-03-14T10:18:15;7.33;;;4.67;;
5549;SDS011;2798;42.716;23.256;2023-03-14T10:20:42;7.43;;;5.03;;
5549;SDS011;2798;42.716;23.256;2023-03-14T10:25:37;7.40;;;5.10;;
5549;SDS011;2798;42.716;23.256;2023-03-14T10:28:03;11.50;;;5.40;;
5549;SDS011;2798;42.716;23.256;2023-03-14T10:33:18;10.53;;;6.33;;
5549;SDS011;2798;42.716;23.256;2023-03-14T10:35:45;7.80;;;6.20;;
5549;SDS011;2798;42.716;23.256;2023-03-14T10:38:12;8.20;;;5.60;;
5549;SDS011;2798;42.716;23.256;2023-03-14T10:40:38;8.77;;;4.73;;
5549;SDS011;2798;42.716;23.256;2023-03-14T10:43:05;7.50;;;5.50;;
5549;SDS011;2798;42.716;23.256;2023-03-14T10:47:56;5.50;;;4.33;;
5549;SDS011;2798;42.716;23.256;2023-03-14T10:52:52;5.40;;;4.40;;
5549;SDS011;2798;42.716;23.256;2023-03-14T10:55:17;10.60;;;4.10;;
5549;SDS011;2798;42.716;23.256;2023-03-14T10:57:43;5.27;;;4.50;;
5549;SDS011;2798;42.716;23.256;2023-03-14T11:00:12;6.70;;;4.30;;
5549;SDS011;2798;42.716;23.256;2023-03-14T11:03:24;7.80;;;4.40;;
5549;SDS011;2798;42.716;23.256;2023-03-14T11:07:50;8.93;;;5.43;;
5549;SDS011;2798;42.716;23.256;2023-03-14T11:10:24;8.70;;;5.37;;
5549;SDS011;2798;42.716;23.256;2023-03-14T11:16:09;10.23;;;5.43;;
5549;SDS011;2798;42.716;23.256;2023-03-14T11:20:59;7.30;;;5.73;;
5549;SDS011;2798;42.716;23.256;2023-03-14T11:23:30;7.27;;;5.27;;
5549;SDS011;2798;42.716;23.256;2023-03-14T11:28:45;9.83;;;5.23;;
5549;SDS011;2798;42.716;23.256;2023-03-14T11:34:00;10.20;;;5.43;;
5549;SDS011;2798;42.716;23.256;2023-03-14T11:36:37;7.30;;;5.00;;
5549;SDS011;2798;42.716;23.256;2023-03-14T11:39:03;11.60;;;4.97;;
5549;SDS011;2798;42.716;23.256;2023-03-14T11:41:34;5.80;;;4.43;;
5549;SDS011;2798;42.716;23.256;2023-03-14T11:44:03;13.63;;;5.40;;
5549;SDS011;2798;42.716;23.256;2023-03-14T11:46:34;4.93;;;4.13;;
5549;SDS011;2798;42.716;23.256;2023-03-14T11:51:29;5.63;;;4.60;;
5549;SDS011;2798;42.716;23.256;2023-03-14T11:56:34;7.23;;;3.80;;
5549;SDS011;2798;42.716;23.256;2023-03-14T11:59:11;4.90;;;4.40;;
5549;SDS011;2798;42.716;23.256;2023-03-14T12:01:50;6.17;;;3.43;;
5549;SDS011;2798;42.716;23.256;2023-03-14T12:06:49;4.53;;;3.30;;
5549;SDS011;2798;42.716;23.256;2023-03-14T12:09:14;5.37;;;3.80;;
5549;SDS011;2798;42.716;23.256;2023-03-14T12:14:18;5.17;;;3.43;;
5549;SDS011;2798;42.716;23.256;2023-03-14T12:16:46;6.33;;;3.60;;
5549;SDS011;2798;42.716;23.256;2023-03-14T12:21:50;8.67;;;3.23;;
5549;SDS011;2798;42.716;23.256;2023-03-14T12:24:18;4.00;;;3.03;;
5549;SDS011;2798;42.716;23.256;2023-03-14T12:26:49;8.13;;;3.60;;
5549;SDS011;2798;42.716;23.256;2023-03-14T12:29:15;9.57;;;3.50;;
5549;SDS011;2798;42.716;23.256;2023-03-14T12:31:43;6.23;;;2.90;;
5549;SDS011;2798;42.716;23.256;2023-03-14T12:36:56;3.97;;;3.57;;
5549;SDS011;2798;42.716;23.256;2023-03-14T12:42:02;13.57;;;3.80;;
5549;SDS011;2798;42.716;23.256;2023-03-14T12:46:59;5.10;;;3.30;;
5549;SDS011;2798;42.716;23.256;2023-03-14T12:49:31;5.20;;;3.30;;
5549;SDS011;2798;42.716;23.256;2023-03-14T12:52:00;5.93;;;3.13;;
5549;SDS011;2798;42.716;23.256;2023-03-14T12:59:47;4.97;;;3.40;;
5549;SDS011;2798;42.716;23.256;2023-03-14T13:15:13;6.30;;;2.57;;
5549;SDS011;2798;42.716;23.256;2023-03-14T13:17:39;4.47;;;2.67;;
5549;SDS011;2798;42.716;23.256;2023-03-14T13:22:49;4.70;;;2.50;;
5549;SDS011;2798;42.716;23.256;2023-03-14T13:25:15;6.43;;;2.30;;
5549;SDS011;2798;42.716;23.256;2023-03-14T13:27:42;3.30;;;2.33;;
5549;SDS011;2798;42.716;23.256;2023-03-14T13:32:39;6.00;;;2.37;;
5549;SDS011;2798;42.716;23.256;2023-03-14T13:35:13;3.00;;;2.20;;
5549;SDS011;2798;42.716;23.256;2023-03-14T13:37:39;3.07;;;2.60;;
5549;SDS011;2798;42.716;23.256;2023-03-14T13:40:07;4.23;;;2.40;;
5549;SDS011;2798;42.716;23.256;2023-03-14T13:42:42;5.83;;;2.23;;
5549;SDS011;2798;42.716;23.256;2023-03-14T13:45:09;3.83;;;2.67;;
5549;SDS011;2798;42.716;23.256;2023-03-14T13:47:37;4.33;;;2.90;;
5549;SDS011;2798;42.716;23.256;2023-03-14T13:50:03;4.73;;;2.53;;
5549;SDS011;2798;42.716;23.256;2023-03-14T13:52:35;6.77;;;2.50;;
5549;SDS011;2798;42.716;23.256;2023-03-14T13:55:01;8.53;;;2.20;;
5549;SDS011;2798;42.716;23.256;2023-03-14T13:57:28;2.13;;;1.93;;
5549;SDS011;2798;42.716;23.256;2023-03-14T14:00:07;5.10;;;2.50;;
5549;SDS011;2798;42.716;23.256;2023-03-14T14:02:36;3.13;;;2.03;;
5549;SDS011;2798;42.716;23.256;2023-03-14T14:05:02;3.73;;;2.07;;
5549;SDS011;2798;42.716;23.256;2023-03-14T14:07:28;2.47;;;2.27;;
5549;SDS011;2798;42.716;23.256;2023-03-14T14:09:53;1.83;;;1.73;;
5549;SDS011;2798;42.716;23.256;2023-03-14T14:12:39;3.73;;;2.13;;
5549;SDS011;2798;42.716;23.256;2023-03-14T14:17:33;5.20;;;1.70;;
5549;SDS011;2798;42.716;23.256;2023-03-14T14:20:00;3.13;;;2.07;;
5549;SDS011;2798;42.716;23.256;2023-03-14T14:22:28;4.40;;;1.90;;
5549;SDS011;2798;42.716;23.256;2023-03-14T14:24:54;2.93;;;1.73;;
5549;SDS011;2798;42.716;23.256;2023-03-14T14:27:32;6.80;;;2.53;;
5549;SDS011;2798;42.716;23.256;2023-03-14T14:30:06;2.60;;;1.87;;
5549;SDS011;2798;42.716;23.256;2023-03-14T14:32:48;2.50;;;2.13;;
5549;SDS011;2798;42.716;23.256;2023-03-14T14:35:24;4.17;;;2.10;;
5549;SDS011;2798;42.716;23.256;2023-03-14T14:37:50;1.77;;;1.53;;
5549;SDS011;2798;42.716;23.256;2023-03-14T14:42:40;3.13;;;1.80;;
5549;SDS011;2798;42.716;23.256;2023-03-14T14:45:07;3.70;;;2.63;;
5549;SDS011;2798;42.716;23.256;2023-03-14T14:47:32;8.60;;;4.10;;
5549;SDS011;2798;42.716;23.256;2023-03-14T14:49:59;6.50;;;2.30;;
5549;SDS011;2798;42.716;23.256;2023-03-14T14:52:33;6.00;;;2.13;;
5549;SDS011;2798;42.716;23.256;2023-03-14T14:54:59;6.30;;;2.90;;
5549;SDS011;2798;42.716;23.256;2023-03-14T14:57:30;5.97;;;2.43;;
5549;SDS011;2798;42.716;23.256;2023-03-14T14:59:56;4.53;;;1.93;;
5549;SDS011;2798;42.716;23.256;2023-03-14T15:04:50;2.40;;;2.03;;
5549;SDS011;2798;42.716;23.256;2023-03-14T15:07:16;5.30;;;2.17;;
5549;SDS011;2798;42.716;23.256;2023-03-14T15:09:42;3.77;;;1.93;;
5549;SDS011;2798;42.716;23.256;2023-03-14T15:12:07;5.63;;;2.00;;
5549;SDS011;2798;42.716;23.256;2023-03-14T15:14:32;4.33;;;2.30;;
5549;SDS011;2798;42.716;23.256;2023-03-14T15:16:58;2.33;;;1.67;;
5549;SDS011;2798;42.716;23.256;2023-03-14T15:19:24;2.93;;;1.87;;
5549;SDS011;2798;42.716;23.256;2023-03-14T15:21:51;8.10;;;4.97;;
5549;SDS011;2798;42.716;23.256;2023-03-14T15:24:16;8.37;;;5.80;;
5549;SDS011;2798;42.716;23.256;2023-03-14T15:26:42;6.17;;;4.00;;
5549;SDS011;2798;42.716;23.256;2023-03-14T15:29:09;4.70;;;2.80;;
5549;SDS011;2798;42.716;23.256;2023-03-14T15:31:37;4.20;;;2.60;;
5549;SDS011;2798;42.716;23.256;2023-03-14T15:34:02;5.03;;;2.63;;
5549;SDS011;2798;42.716;23.256;2023-03-14T15:36:29;4.20;;;2.37;;
5549;SDS011;2798;42.716;23.256;2023-03-14T15:38:55;4.70;;;2.40;;
5549;SDS011;2798;42.716;23.256;2023-03-14T15:41:21;4.30;;;2.50;;
5549;SDS011;2798;42.716;23.256;2023-03-14T15:43:46;6.20;;;2.57;;
5549;SDS011;2798;42.716;23.256;2023-03-14T15:46:12;3.27;;;2.53;;
5549;SDS011;2798;42.716;23.256;2023-03-14T15:48:37;5.90;;;3.00;;
5549;SDS011;2798;42.716;23.256;2023-03-14T15:51:03;4.90;;;2.70;;
5549;SDS011;2798;42.716;23.256;2023-03-14T15:53:28;3.67;;;2.70;;
5549;SDS011;2798;42.716;23.256;2023-03-14T15:55:53;6.03;;;2.30;;
5549;SDS011;2798;42.716;23.256;2023-03-14T15:58:19;3.70;;;2.60;;
5549;SDS011;2798;42.716;23.256;2023-03-14T16:00:44;3.50;;;2.50;;
5549;SDS011;2798;42.716;23.256;2023-03-14T16:03:10;4.43;;;2.50;;
5549;SDS011;2798;42.716;23.256;2023-03-14T16:05:37;4.67;;;3.00;;
5549;SDS011;2798;42.716;23.256;2023-03-14T16:08:02;4.03;;;2.73;;